sensor_id;sensor_type;location;lat;lon;timestamp;pressure;altitude;pressure_sealevel;temperature;humidity
45369;BME280;51342;55.250;37.668;2023-03-23T00:04:14;99453.28;;;2.79;69.78
45369;BME280;51342;55.250;37.668;2023-03-23T00:06:46;99452.00;;;2.84;69.69
45369;BME280;51342;55.250;37.668;2023-03-23T00:09:18;99456.47;;;2.86;70.14
45369;BME280;51342;55.250;37.668;2023-03-23T00:11:54;99461.69;;;2.88;69.95
45369;BME280;51342;55.250;37.668;2023-03-23T00:14:28;99458.38;;;2.89;69.78
45369;BME280;51342;55.250;37.668;2023-03-23T00:16:59;99464.41;;;2.89;69.72
45369;BME280;51342;55.250;37.668;2023-03-23T00:19:30;99455.06;;;2.90;70.12
45369;BME280;51342;55.250;37.668;2023-03-23T00:22:03;99463.63;;;2.90;69.85
45369;BME280;51342;55.250;37.668;2023-03-23T00:24:35;99457.75;;;2.91;69.94
45369;BME280;51342;55.250;37.668;2023-03-23T00:27:07;99448.91;;;2.88;69.58
45369;BME280;51342;55.250;37.668;2023-03-23T00:29:41;99463.75;;;2.92;69.90
45369;BME280;51342;55.250;37.668;2023-03-23T00:32:13;99452.38;;;2.88;69.87
45369;BME280;51342;55.250;37.668;2023-03-23T00:34:45;99462.84;;;2.91;69.81
45369;BME280;51342;55.250;37.668;2023-03-23T00:37:19;99458.63;;;2.92;69.57
45369;BME280;51342;55.250;37.668;2023-03-23T00:39:50;99458.63;;;2.92;70.03
45369;BME280;51342;55.250;37.668;2023-03-23T00:42:23;99447.53;;;2.91;69.81
45369;BME280;51342;55.250;37.668;2023-03-23T00:44:55;99449.31;;;2.92;69.82
45369;BME280;51342;55.250;37.668;2023-03-23T00:47:31;99437.41;;;2.93;69.85
45369;BME280;51342;55.250;37.668;2023-03-23T00:50:04;99438.19;;;2.92;69.79
45369;BME280;51342;55.250;37.668;2023-03-23T00:52:36;99428.88;;;2.92;69.99
45369;BME280;51342;55.250;37.668;2023-03-23T00:55:07;99440.25;;;2.96;69.79
45369;BME280;51342;55.250;37.668;2023-03-23T00:57:39;99436.66;;;2.94;69.73
45369;BME280;51342;55.250;37.668;2023-03-23T01:00:11;99441.91;;;2.96;70.05
45369;BME280;51342;55.250;37.668;2023-03-23T01:02:42;99438.47;;;2.95;69.75
45369;BME280;51342;55.250;37.668;2023-03-23T01:05:15;99437.53;;;2.95;69.56
45369;BME280;51342;55.250;37.668;2023-03-23T01:07:47;99434.25;;;2.96;69.75
45369;BME280;51342;55.250;37.668;2023-03-23T01:10:19;99435.13;;;2.96;69.77
45369;BME280;51342;55.250;37.668;2023-03-23T01:12:50;99427.47;;;2.96;69.75
45369;BME280;51342;55.250;37.668;2023-03-23T01:15:22;99434.25;;;2.96;69.81
45369;BME280;51342;55.250;37.668;2023-03-23T01:17:53;99421.97;;;2.91;69.90
45369;BME280;51342;55.250;37.668;2023-03-23T01:20:25;99432.56;;;2.96;69.84
45369;BME280;51342;55.250;37.668;2023-03-23T01:23:03;99424.41;;;2.90;69.78
45369;BME280;51342;55.250;37.668;2023-03-23T01:25:35;99421.97;;;2.91;69.80
45369;BME280;51342;55.250;37.668;2023-03-23T01:28:07;99410.75;;;2.89;70.12
45369;BME280;51342;55.250;37.668;2023-03-23T01:30:38;99410.59;;;2.88;69.84
45369;BME280;51342;55.250;37.668;2023-03-23T01:33:10;99420.19;;;2.90;70.19
45369;BME280;51342;55.250;37.668;2023-03-23T01:35:41;99408.19;;;2.89;70.47
45369;BME280;51342;55.250;37.668;2023-03-23T01:38:13;99403.31;;;2.92;70.20
45369;BME280;51342;55.250;37.668;2023-03-23T01:40:44;99403.97;;;2.90;70.46
45369;BME280;51342;55.250;37.668;2023-03-23T01:43:18;99391.94;;;2.89;70.23
45369;BME280;51342;55.250;37.668;2023-03-23T01:45:50;99391.03;;;2.88;70.44
45369;BME280;51342;55.250;37.668;2023-03-23T01:48:30;99390.03;;;2.86;70.39
45369;BME280;51342;55.250;37.668;2023-03-23T01:51:06;99389.16;;;2.86;70.61
45369;BME280;51342;55.250;37.668;2023-03-23T01:53:54;99395.03;;;2.85;70.68
45369;BME280;51342;55.250;37.668;2023-03-23T01:56:36;99395.91;;;2.85;70.65
45369;BME280;51342;55.250;37.668;2023-03-23T01:59:12;99386.09;;;2.90;70.87
45369;BME280;51342;55.250;37.668;2023-03-23T02:01:49;99389.16;;;2.86;70.87
45369;BME280;51342;55.250;37.668;2023-03-23T02:04:25;99389.16;;;2.86;71.06
45369;BME280;51342;55.250;37.668;2023-03-23T02:06:57;99387.38;;;2.85;70.91
45369;BME280;51342;55.250;37.668;2023-03-23T02:09:31;99387.38;;;2.85;70.90
45369;BME280;51342;55.250;37.668;2023-03-23T02:12:03;99389.03;;;2.84;71.10
45369;BME280;51342;55.250;37.668;2023-03-23T02:14:35;99389.66;;;2.82;71.37
45369;BME280;51342;55.250;37.668;2023-03-23T02:20:33;99390.53;;;2.72;71.26
45369;BME280;51342;55.250;37.668;2023-03-23T02:24:10;99382.91;;;2.62;71.43
45369;BME280;51342;55.250;37.668;2023-03-23T02:26:57;99380.97;;;2.59;71.69
45369;BME280;51342;55.250;37.668;2023-03-23T02:29:50;99376.66;;;2.58;71.48
45369;BME280;51342;55.250;37.668;2023-03-23T02:35:28;99387.38;;;2.54;71.74
45369;BME280;51342;55.250;37.668;2023-03-23T02:38:05;99384.69;;;2.53;71.92
45369;BME280;51342;55.250;37.668;2023-03-23T02:40:41;99384.47;;;2.50;71.76
45369;BME280;51342;55.250;37.668;2023-03-23T02:43:16;99387.00;;;2.50;71.93
45369;BME280;51342;55.250;37.668;2023-03-23T02:45:50;99385.06;;;2.47;72.04
45369;BME280;51342;55.250;37.668;2023-03-23T02:48:28;99384.56;;;2.41;72.48
45369;BME280;51342;55.250;37.668;2023-03-23T02:51:01;99384.69;;;2.43;72.21
45369;BME280;51342;55.250;37.668;2023-03-23T02:53:36;99385.34;;;2.40;72.30
45369;BME280;51342;55.250;37.668;2023-03-23T02:56:09;99383.56;;;2.39;72.55
45369;BME280;51342;55.250;37.668;2023-03-23T02:58:42;99386.84;;;2.38;72.70
45369;BME280;51342;55.250;37.668;2023-03-23T03:03:57;99384.94;;;2.35;72.98
45369;BME280;51342;55.250;37.668;2023-03-23T03:06:41;99385.59;;;2.33;73.19
45369;BME280;51342;55.250;37.668;2023-03-23T03:12:31;99396.03;;;2.26;73.12
45369;BME280;51342;55.250;37.668;2023-03-23T03:17:44;99390.81;;;2.24;73.53
45369;BME280;51342;55.250;37.668;2023-03-23T03:20:21;99392.47;;;2.24;73.21
45369;BME280;51342;55.250;37.668;2023-03-23T03:22:56;99389.03;;;2.23;73.29
45369;BME280;51342;55.250;37.668;2023-03-23T03:25:30;99380.97;;;2.19;73.60
45369;BME280;51342;55.250;37.668;2023-03-23T03:28:03;99387.97;;;2.21;73.41
45369;BME280;51342;55.250;37.668;2023-03-23T03:30:47;99387.84;;;2.20;73.67
45369;BME280;51342;55.250;37.668;2023-03-23T03:33:22;99392.97;;;2.20;73.93
45369;BME280;51342;55.250;37.668;2023-03-23T03:36:01;99387.84;;;2.20;73.78
45369;BME280;51342;55.250;37.668;2023-03-23T03:38:41;99376.53;;;2.16;73.82
45369;BME280;51342;55.250;37.668;2023-03-23T03:41:14;99379.44;;;2.21;74.05
45369;BME280;51342;55.250;37.668;2023-03-23T03:43:45;99383.03;;;2.23;73.95
45369;BME280;51342;55.250;37.668;2023-03-23T03:46:17;99378.53;;;2.20;74.21
45369;BME280;51342;55.250;37.668;2023-03-23T03:48:48;99377.03;;;2.22;74.04
45369;BME280;51342;55.250;37.668;2023-03-23T03:51:25;99377.94;;;2.23;74.24
45369;BME280;51342;55.250;37.668;2023-03-23T03:53:58;99374.72;;;2.25;74.30
45369;BME280;51342;55.250;37.668;2023-03-23T03:56:30;99370.66;;;2.27;74.18
45369;BME280;51342;55.250;37.668;2023-03-23T03:59:18;99372.84;;;2.33;74.12
45369;BME280;51342;55.250;37.668;2023-03-23T04:02:25;99364.78;;;2.38;74.01
45369;BME280;51342;55.250;37.668;2023-03-23T04:04:58;99363.09;;;2.49;74.17
45369;BME280;51342;55.250;37.668;2023-03-23T04:07:30;99365.66;;;2.59;74.03
45369;BME280;51342;55.250;37.668;2023-03-23T04:10:02;99364.00;;;2.70;73.74
45369;BME280;51342;55.250;37.668;2023-03-23T04:12:36;99367.44;;;2.81;73.77
45369;BME280;51342;55.250;37.668;2023-03-23T04:15:43;99355.56;;;2.71;73.86
45369;BME280;51342;55.250;37.668;2023-03-23T04:18:15;99357.19;;;2.91;73.36
45369;BME280;51342;55.250;37.668;2023-03-23T04:20:49;99348.09;;;3.05;73.49
45369;BME280;51342;55.250;37.668;2023-03-23T04:23:23;99343.22;;;3.18;72.98
45369;BME280;51342;55.250;37.668;2023-03-23T04:25:56;99351.97;;;3.32;73.23
45369;BME280;51342;55.250;37.668;2023-03-23T04:28:35;99350.38;;;3.44;73.17
45369;BME280;51342;55.250;37.668;2023-03-23T04:31:25;99354.28;;;3.61;72.93
45369;BME280;51342;55.250;37.668;2023-03-23T04:34:03;99352.81;;;3.75;72.76
45369;BME280;51342;55.250;37.668;2023-03-23T04:36:41;99347.84;;;3.88;72.33
45369;BME280;51342;55.250;37.668;2023-03-23T04:39:19;99332.44;;;3.98;72.03
45369;BME280;51342;55.250;37.668;2023-03-23T04:41:51;99346.53;;;4.15;72.05
45369;BME280;51342;55.250;37.668;2023-03-23T04:44:42;99342.25;;;4.25;71.53
45369;BME280;51342;55.250;37.668;2023-03-23T04:47:18;99343.25;;;4.39;71.13
45369;BME280;51342;55.250;37.668;2023-03-23T04:49:57;99336.59;;;4.53;71.09
45369;BME280;51342;55.250;37.668;2023-03-23T04:52:36;99345.88;;;4.63;70.31
45369;BME280;51342;55.250;37.668;2023-03-23T04:55:09;99338.00;;;4.71;70.16
45369;BME280;51342;55.250;37.668;2023-03-23T04:57:42;99337.44;;;4.87;69.83
45369;BME280;51342;55.250;37.668;2023-03-23T05:00:36;99344.25;;;4.98;69.64
45369;BME280;51342;55.250;37.668;2023-03-23T05:03:10;99342.47;;;5.09;69.45
45369;BME280;51342;55.250;37.668;2023-03-23T05:05:43;99345.69;;;5.18;69.06
45369;BME280;51342;55.250;37.668;2023-03-23T05:08:22;99339.44;;;5.26;68.62
45369;BME280;51342;55.250;37.668;2023-03-23T05:10:56;99336.78;;;5.13;68.97
45369;BME280;51342;55.250;37.668;2023-03-23T05:13:29;99337.31;;;5.32;68.92
45369;BME280;51342;55.250;37.668;2023-03-23T05:16:05;99333.19;;;5.46;68.17
45369;BME280;51342;55.250;37.668;2023-03-23T05:18:38;99323.78;;;5.58;67.56
45369;BME280;51342;55.250;37.668;2023-03-23T05:21:12;99326.41;;;5.72;67.90
45369;BME280;51342;55.250;37.668;2023-03-23T05:23:49;99312.88;;;5.86;67.68
45369;BME280;51342;55.250;37.668;2023-03-23T05:26:27;99312.88;;;5.98;66.97
45369;BME280;51342;55.250;37.668;2023-03-23T05:29:08;99306.69;;;6.07;67.01
45369;BME280;51342;55.250;37.668;2023-03-23T05:31:52;99315.09;;;6.18;66.14
45369;BME280;51342;55.250;37.668;2023-03-23T05:34:28;99320.09;;;6.28;66.09
45369;BME280;51342;55.250;37.668;2023-03-23T05:37:04;99312.22;;;6.38;65.56
45369;BME280;51342;55.250;37.668;2023-03-23T05:39:47;99316.97;;;6.46;65.72
45369;BME280;51342;55.250;37.668;2023-03-23T05:42:22;99308.69;;;6.50;64.97
45369;BME280;51342;55.250;37.668;2023-03-23T05:45:10;99314.81;;;6.52;65.25
45369;BME280;51342;55.250;37.668;2023-03-23T05:47:47;99310.28;;;6.61;65.16
45369;BME280;51342;55.250;37.668;2023-03-23T05:50:23;99314.25;;;6.69;64.43
45369;BME280;51342;55.250;37.668;2023-03-23T05:52:55;99313.19;;;6.79;64.17
45369;BME280;51342;55.250;37.668;2023-03-23T05:55:28;99307.78;;;6.87;63.92
45369;BME280;51342;55.250;37.668;2023-03-23T05:58:11;99320.13;;;6.93;63.15
45369;BME280;51342;55.250;37.668;2023-03-23T06:00:46;99318.75;;;6.98;63.14
45369;BME280;51342;55.250;37.668;2023-03-23T06:03:25;99326.16;;;7.07;62.68
45369;BME280;51342;55.250;37.668;2023-03-23T06:06:12;99324.88;;;7.13;62.82
45369;BME280;51342;55.250;37.668;2023-03-23T06:08:56;99314.09;;;7.19;62.35
45369;BME280;51342;55.250;37.668;2023-03-23T06:11:41;99320.00;;;7.31;62.55
45369;BME280;51342;55.250;37.668;2023-03-23T06:14:31;99317.31;;;7.43;62.50
45369;BME280;51342;55.250;37.668;2023-03-23T06:17:03;99322.88;;;7.49;62.06
45369;BME280;51342;55.250;37.668;2023-03-23T06:19:35;99316.53;;;7.57;61.41
45369;BME280;51342;55.250;37.668;2023-03-23T06:22:13;99318.69;;;7.64;61.60
45369;BME280;51342;55.250;37.668;2023-03-23T06:24:48;99314.91;;;7.73;61.89
45369;BME280;51342;55.250;37.668;2023-03-23T06:27:24;99308.00;;;7.72;61.44
45369;BME280;51342;55.250;37.668;2023-03-23T06:29:56;99315.22;;;7.77;61.47
45369;BME280;51342;55.250;37.668;2023-03-23T06:32:29;99305.97;;;7.81;61.47
45369;BME280;51342;55.250;37.668;2023-03-23T06:35:02;99311.31;;;7.84;61.55
45369;BME280;51342;55.250;37.668;2023-03-23T06:37:36;99316.72;;;7.88;60.82
45369;BME280;51342;55.250;37.668;2023-03-23T06:40:25;99310.69;;;7.88;61.18
45369;BME280;51342;55.250;37.668;2023-03-23T06:43:00;99310.97;;;7.92;61.02
45369;BME280;51342;55.250;37.668;2023-03-23T06:45:50;99315.53;;;7.96;60.46
45369;BME280;51342;55.250;37.668;2023-03-23T06:48:41;99316.63;;;8.00;60.59
45369;BME280;51342;55.250;37.668;2023-03-23T06:51:17;99315.09;;;8.04;60.26
45369;BME280;51342;55.250;37.668;2023-03-23T06:53:53;99316.28;;;8.09;60.32
45369;BME280;51342;55.250;37.668;2023-03-23T06:56:24;99314.88;;;8.14;59.64
45369;BME280;51342;55.250;37.668;2023-03-23T06:58:56;99312.56;;;8.18;59.21
45369;BME280;51342;55.250;37.668;2023-03-23T07:01:29;99323.53;;;8.29;59.06
45369;BME280;51342;55.250;37.668;2023-03-23T07:04:04;99315.06;;;8.32;59.08
45369;BME280;51342;55.250;37.668;2023-03-23T07:06:48;99314.38;;;8.34;58.41
45369;BME280;51342;55.250;37.668;2023-03-23T07:09:19;99310.69;;;8.44;58.27
45369;BME280;51342;55.250;37.668;2023-03-23T07:11:52;99309.25;;;8.49;57.97
45369;BME280;51342;55.250;37.668;2023-03-23T07:14:33;99302.78;;;8.56;58.18
45369;BME280;51342;55.250;37.668;2023-03-23T07:17:05;99300.56;;;8.62;58.55
45369;BME280;51342;55.250;37.668;2023-03-23T07:19:40;99296.31;;;8.62;57.51
45369;BME280;51342;55.250;37.668;2023-03-23T07:22:15;99286.53;;;8.57;57.43
45369;BME280;51342;55.250;37.668;2023-03-23T07:24:52;99292.81;;;8.62;57.92
45369;BME280;51342;55.250;37.668;2023-03-23T07:27:30;99278.06;;;8.59;57.58
45369;BME280;51342;55.250;37.668;2023-03-23T07:30:05;99285.63;;;8.71;57.50
45369;BME280;51342;55.250;37.668;2023-03-23T07:32:37;99285.34;;;8.81;56.82
45369;BME280;51342;55.250;37.668;2023-03-23T07:35:09;99278.66;;;8.85;56.45
45369;BME280;51342;55.250;37.668;2023-03-23T07:37:58;99280.63;;;8.89;55.96
45369;BME280;51342;55.250;37.668;2023-03-23T07:40:31;99278.13;;;8.90;56.06
45369;BME280;51342;55.250;37.668;2023-03-23T07:43:11;99276.63;;;8.94;56.04
45369;BME280;51342;55.250;37.668;2023-03-23T07:46:12;99274.13;;;8.95;56.35
45369;BME280;51342;55.250;37.668;2023-03-23T07:48:56;99263.38;;;9.02;56.54
45369;BME280;51342;55.250;37.668;2023-03-23T07:51:32;99271.88;;;9.01;56.37
45369;BME280;51342;55.250;37.668;2023-03-23T07:54:05;99270.84;;;8.98;56.04
45369;BME280;51342;55.250;37.668;2023-03-23T07:56:58;99264.44;;;8.91;56.35
45369;BME280;51342;55.250;37.668;2023-03-23T07:59:38;99269.16;;;8.84;56.12
45369;BME280;51342;55.250;37.668;2023-03-23T08:02:10;99261.59;;;8.72;56.12
45369;BME280;51342;55.250;37.668;2023-03-23T08:04:56;99259.84;;;8.71;55.86
45369;BME280;51342;55.250;37.668;2023-03-23T08:07:27;99257.78;;;8.65;55.48
45369;BME280;51342;55.250;37.668;2023-03-23T08:10:35;99251.94;;;8.68;55.65
45369;BME280;51342;55.250;37.668;2023-03-23T08:13:35;99250.50;;;8.58;55.44
45369;BME280;51342;55.250;37.668;2023-03-23T08:16:16;99244.81;;;8.49;55.69
45369;BME280;51342;55.250;37.668;2023-03-23T08:19:22;99245.53;;;8.46;55.64
45369;BME280;51342;55.250;37.668;2023-03-23T08:21:54;99243.66;;;8.44;55.74
45369;BME280;51342;55.250;37.668;2023-03-23T08:24:32;99240.47;;;8.48;56.52
45369;BME280;51342;55.250;37.668;2023-03-23T08:27:10;99245.81;;;8.51;56.10
45369;BME280;51342;55.250;37.668;2023-03-23T08:30:03;99239.31;;;8.58;55.34
45369;BME280;51342;55.250;37.668;2023-03-23T08:32:58;99239.81;;;8.67;55.41
45369;BME280;51342;55.250;37.668;2023-03-23T08:35:58;99236.63;;;8.71;55.06
45369;BME280;51342;55.250;37.668;2023-03-23T08:38:50;99230.38;;;8.67;55.16
45369;BME280;51342;55.250;37.668;2023-03-23T08:41:41;99226.56;;;8.61;55.08
45369;BME280;51342;55.250;37.668;2023-03-23T08:44:31;99228.31;;;8.45;55.75
45369;BME280;51342;55.250;37.668;2023-03-23T08:47:38;99218.91;;;8.33;55.11
45369;BME280;51342;55.250;37.668;2023-03-23T08:50:42;99220.97;;;8.23;55.35
45369;BME280;51342;55.250;37.668;2023-03-23T08:53:46;99217.69;;;8.11;55.53
45369;BME280;51342;55.250;37.668;2023-03-23T08:56:29;99214.09;;;8.09;55.61
45369;BME280;51342;55.250;37.668;2023-03-23T08:59:19;99220.34;;;8.13;55.36
45369;BME280;51342;55.250;37.668;2023-03-23T09:02:00;99215.69;;;8.22;55.35
45369;BME280;51342;55.250;37.668;2023-03-23T09:04:54;99212.72;;;8.29;55.51
45369;BME280;51342;55.250;37.668;2023-03-23T09:07:47;99207.72;;;8.32;55.54
45369;BME280;51342;55.250;37.668;2023-03-23T09:10:19;99209.88;;;8.39;55.49
45369;BME280;51342;55.250;37.668;2023-03-23T09:12:52;99199.94;;;8.45;55.54
45369;BME280;51342;55.250;37.668;2023-03-23T09:15:24;99202.06;;;8.53;55.64
45369;BME280;51342;55.250;37.668;2023-03-23T09:17:56;99194.59;;;8.57;55.43
45369;BME280;51342;55.250;37.668;2023-03-23T09:20:28;99195.00;;;8.65;55.44
45369;BME280;51342;55.250;37.668;2023-03-23T09:23:00;99188.25;;;8.67;54.89
45369;BME280;51342;55.250;37.668;2023-03-23T09:25:31;99189.31;;;8.70;54.88
45369;BME280;51342;55.250;37.668;2023-03-23T09:28:03;99179.81;;;8.69;54.35
45369;BME280;51342;55.250;37.668;2023-03-23T09:30:36;99184.22;;;8.72;54.72
45369;BME280;51342;55.250;37.668;2023-03-23T09:33:08;99175.97;;;8.77;54.22
45369;BME280;51342;55.250;37.668;2023-03-23T09:35:40;99183.94;;;8.82;54.06
45369;BME280;51342;55.250;37.668;2023-03-23T09:38:13;99161.00;;;8.87;53.45
45369;BME280;51342;55.250;37.668;2023-03-23T09:41:26;99156.81;;;8.89;53.10
45369;BME280;51342;55.250;37.668;2023-03-23T09:43:57;99159.38;;;8.89;53.29
45369;BME280;51342;55.250;37.668;2023-03-23T09:49:19;99142.38;;;8.92;53.78
45369;BME280;51342;55.250;37.668;2023-03-23T09:51:57;99141.41;;;8.90;53.01
45369;BME280;51342;55.250;37.668;2023-03-23T09:54:39;99127.63;;;8.90;52.75
45369;BME280;51342;55.250;37.668;2023-03-23T09:58:08;99131.25;;;8.93;52.91
45369;BME280;51342;55.250;37.668;2023-03-23T10:00:14;99128.69;;;8.93;52.58
45369;BME280;51342;55.250;37.668;2023-03-23T10:02:55;99129.63;;;8.95;52.78
45369;BME280;51342;55.250;37.668;2023-03-23T10:05:37;99132.41;;;8.98;53.08
45369;BME280;51342;55.250;37.668;2023-03-23T10:08:18;99132.41;;;8.98;52.02
45369;BME280;51342;55.250;37.668;2023-03-23T10:16:46;99120.78;;;9.07;52.72
45369;BME280;51342;55.250;37.668;2023-03-23T10:22:10;99110.00;;;9.14;52.91
45369;BME280;51342;55.250;37.668;2023-03-23T10:24:49;99116.19;;;9.17;52.78
45369;BME280;51342;55.250;37.668;2023-03-23T10:30:29;99094.44;;;9.12;52.91
45369;BME280;51342;55.250;37.668;2023-03-23T10:33:18;99095.47;;;9.16;52.58
45369;BME280;51342;55.250;37.668;2023-03-23T10:39:18;99097.81;;;9.11;52.64
45369;BME280;51342;55.250;37.668;2023-03-23T10:41:50;99093.78;;;9.16;52.80
45369;BME280;51342;55.250;37.668;2023-03-23T10:44:24;99095.63;;;9.19;52.08
45369;BME280;51342;55.250;37.668;2023-03-23T10:47:04;99085.09;;;9.14;52.36
45369;BME280;51342;55.250;37.668;2023-03-23T10:49:50;99092.28;;;9.20;52.07
45369;BME280;51342;55.250;37.668;2023-03-23T10:52:35;99080.16;;;9.19;52.40
45369;BME280;51342;55.250;37.668;2023-03-23T10:55:16;99088.00;;;9.20;52.73
45369;BME280;51342;55.250;37.668;2023-03-23T10:58:04;99086.22;;;9.19;52.52
45369;BME280;51342;55.250;37.668;2023-03-23T11:00:46;99075.09;;;9.20;52.68
45369;BME280;51342;55.250;37.668;2023-03-23T11:03:24;99077.75;;;9.22;52.37
45369;BME280;51342;55.250;37.668;2023-03-23T11:06:00;99076.94;;;9.23;52.73
45369;BME280;51342;55.250;37.668;2023-03-23T11:08:38;99072.34;;;9.17;52.22
45369;BME280;51342;55.250;37.668;2023-03-23T11:11:29;99071.63;;;9.20;52.36
45369;BME280;51342;55.250;37.668;2023-03-23T11:16:52;99072.66;;;9.23;52.36
45369;BME280;51342;55.250;37.668;2023-03-23T11:19:27;99078.63;;;9.22;52.67
45369;BME280;51342;55.250;37.668;2023-03-23T11:22:08;99079.44;;;9.21;52.72
45369;BME280;51342;55.250;37.668;2023-03-23T11:24:42;99071.75;;;9.23;52.36
45369;BME280;51342;55.250;37.668;2023-03-23T11:27:15;99071.19;;;9.28;52.23
45369;BME280;51342;55.250;37.668;2023-03-23T11:32:30;99069.75;;;9.34;52.46
45369;BME280;51342;55.250;37.668;2023-03-23T11:35:19;99069.81;;;9.35;52.38
45369;BME280;51342;55.250;37.668;2023-03-23T11:37:57;99069.50;;;9.29;52.49
45369;BME280;51342;55.250;37.668;2023-03-23T11:40:31;99074.53;;;9.26;52.37
45369;BME280;51342;55.250;37.668;2023-03-23T11:43:17;99072.41;;;9.19;52.03
45369;BME280;51342;55.250;37.668;2023-03-23T11:48:44;99060.66;;;9.08;52.45
45369;BME280;51342;55.250;37.668;2023-03-23T11:51:41;99068.41;;;9.08;52.87
45369;BME280;51342;55.250;37.668;2023-03-23T11:54:34;99060.56;;;9.06;52.80
45369;BME280;51342;55.250;37.668;2023-03-23T11:57:09;99062.31;;;9.07;52.56
45369;BME280;51342;55.250;37.668;2023-03-23T11:59:43;99064.03;;;9.07;52.79
45369;BME280;51342;55.250;37.668;2023-03-23T12:02:31;99069.09;;;9.05;53.36
45369;BME280;51342;55.250;37.668;2023-03-23T12:05:34;99064.69;;;9.02;52.74
45369;BME280;51342;55.250;37.668;2023-03-23T12:13:41;99074.13;;;9.02;53.01
45369;BME280;51342;55.250;37.668;2023-03-23T12:33:53;99057.94;;;8.73;53.94
45369;BME280;51342;55.250;37.668;2023-03-23T12:45:55;99051.25;;;8.61;54.03
45369;BME280;51342;55.250;37.668;2023-03-23T12:48:39;99041.09;;;8.64;53.81
45369;BME280;51342;55.250;37.668;2023-03-23T12:51:28;99048.91;;;8.65;53.73
45369;BME280;51342;55.250;37.668;2023-03-23T12:57:40;99042.16;;;8.67;53.40
45369;BME280;51342;55.250;37.668;2023-03-23T13:03:41;99040.38;;;8.66;53.57
45369;BME280;51342;55.250;37.668;2023-03-23T13:06:33;99043.63;;;8.62;53.59
45369;BME280;51342;55.250;37.668;2023-03-23T13:09:29;99043.50;;;8.61;53.80
45369;BME280;51342;55.250;37.668;2023-03-23T13:12:04;99038.28;;;8.59;53.82
45369;BME280;51342;55.250;37.668;2023-03-23T13:15:04;99035.44;;;8.55;53.46
45369;BME280;51342;55.250;37.668;2023-03-23T13:21:25;99032.13;;;8.41;53.77
45369;BME280;51342;55.250;37.668;2023-03-23T13:24:08;99031.25;;;8.40;53.69
45369;BME280;51342;55.250;37.668;2023-03-23T13:26:42;99030.50;;;8.43;54.41
45369;BME280;51342;55.250;37.668;2023-03-23T13:29:19;99026.78;;;8.38;54.41
45369;BME280;51342;55.250;37.668;2023-03-23T13:31:51;99021.44;;;8.35;54.29
45369;BME280;51342;55.250;37.668;2023-03-23T13:34:24;99013.28;;;8.27;54.52
45369;BME280;51342;55.250;37.668;2023-03-23T13:37:02;99018.09;;;8.21;54.35
45369;BME280;51342;55.250;37.668;2023-03-23T13:42:28;99011.38;;;8.08;55.11
45369;BME280;51342;55.250;37.668;2023-03-23T13:45:07;99010.50;;;8.08;54.56
45369;BME280;51342;55.250;37.668;2023-03-23T13:47:41;99013.75;;;8.05;55.27
45369;BME280;51342;55.250;37.668;2023-03-23T13:53:14;99026.31;;;7.99;55.23
45369;BME280;51342;55.250;37.668;2023-03-23T13:55:51;99031.72;;;8.04;55.75
45369;BME280;51342;55.250;37.668;2023-03-23T13:58:25;99020.38;;;8.00;55.40
45369;BME280;51342;55.250;37.668;2023-03-23T14:03:40;99014.78;;;7.92;55.60
45369;BME280;51342;55.250;37.668;2023-03-23T14:06:14;99015.59;;;7.91;55.66
45369;BME280;51342;55.250;37.668;2023-03-23T14:09:11;99014.44;;;7.86;55.79
45369;BME280;51342;55.250;37.668;2023-03-23T14:11:55;99003.97;;;7.83;56.02
45369;BME280;51342;55.250;37.668;2023-03-23T14:14:31;99015.84;;;7.81;56.17
45369;BME280;51342;55.250;37.668;2023-03-23T14:19:49;99006.09;;;7.76;55.81
45369;BME280;51342;55.250;37.668;2023-03-23T14:22:34;99003.09;;;7.68;56.91
45369;BME280;51342;55.250;37.668;2023-03-23T14:25:16;99000.31;;;7.65;56.58
45369;BME280;51342;55.250;37.668;2023-03-23T14:27:51;98995.97;;;7.64;56.62
45369;BME280;51342;55.250;37.668;2023-03-23T14:30:34;98993.88;;;7.57;56.83
45369;BME280;51342;55.250;37.668;2023-03-23T14:33:09;98996.53;;;7.58;56.58
45369;BME280;51342;55.250;37.668;2023-03-23T14:35:43;99000.63;;;7.55;56.95
45369;BME280;51342;55.250;37.668;2023-03-23T14:38:19;99008.06;;;7.50;56.75
45369;BME280;51342;55.250;37.668;2023-03-23T14:40:51;99002.56;;;7.44;56.86
45369;BME280;51342;55.250;37.668;2023-03-23T14:43:23;99003.09;;;7.38;57.42
45369;BME280;51342;55.250;37.668;2023-03-23T14:45:58;99002.81;;;7.34;56.82
45369;BME280;51342;55.250;37.668;2023-03-23T14:48:31;98996.53;;;7.29;57.51
45369;BME280;51342;55.250;37.668;2023-03-23T14:51:04;98996.44;;;7.27;57.08
45369;BME280;51342;55.250;37.668;2023-03-23T14:53:39;98987.91;;;7.28;57.41
45369;BME280;51342;55.250;37.668;2023-03-23T14:56:19;98989.53;;;7.26;57.33
45369;BME280;51342;55.250;37.668;2023-03-23T14:58:53;98986.69;;;7.22;57.51
45369;BME280;51342;55.250;37.668;2023-03-23T15:01:27;98981.34;;;7.18;57.34
45369;BME280;51342;55.250;37.668;2023-03-23T15:04:06;98977.78;;;7.16;57.58
45369;BME280;51342;55.250;37.668;2023-03-23T15:06:43;98981.59;;;7.23;57.29
45369;BME280;51342;55.250;37.668;2023-03-23T15:09:19;98967.66;;;7.20;57.40
45369;BME280;51342;55.250;37.668;2023-03-23T15:11:59;98972.94;;;7.21;57.21
45369;BME280;51342;55.250;37.668;2023-03-23T15:14:41;98974.34;;;7.16;57.30
45369;BME280;51342;55.250;37.668;2023-03-23T15:17:26;98972.91;;;7.06;57.47
45369;BME280;51342;55.250;37.668;2023-03-23T15:20:17;98976.81;;;7.00;58.06
45369;BME280;51342;55.250;37.668;2023-03-23T15:22:50;98973.22;;;6.98;57.96
45369;BME280;51342;55.250;37.668;2023-03-23T15:25:30;98959.91;;;6.90;57.56
45369;BME280;51342;55.250;37.668;2023-03-23T15:28:20;98963.81;;;6.83;58.14
45369;BME280;51342;55.250;37.668;2023-03-23T15:30:55;98958.69;;;6.83;58.20
45369;BME280;51342;55.250;37.668;2023-03-23T15:33:39;98961.69;;;6.76;58.23
45369;BME280;51342;55.250;37.668;2023-03-23T15:36:17;98955.38;;;6.71;58.19
45369;BME280;51342;55.250;37.668;2023-03-23T15:38:49;98952.81;;;6.71;58.53